createdAt,value
2022-10-17T00:00:00.557Z,17
2022-10-17T00:01:00.601Z,19
2022-10-17T00:02:00.558Z,20
2022-10-17T00:03:00.557Z,19
2022-10-17T00:05:00.558Z,18
2022-10-17T00:07:00.595Z,17
2022-10-17T00:08:00.559Z,18
2022-10-17T00:09:00.584Z,19
2022-10-17T00:11:00.560Z,18
2022-10-17T00:12:00.605Z,17
2022-10-17T00:13:00.560Z,16
2022-10-17T00:15:00.560Z,16
2022-10-17T00:16:00.563Z,18
2022-10-17T00:17:00.589Z,19
2022-10-17T00:18:00.571Z,17
2022-10-17T00:19:00.563Z,18
2022-10-17T00:20:00.567Z,17
2022-10-17T00:21:00.566Z,15
2022-10-17T00:22:00.599Z,14
2022-10-17T00:23:00.565Z,19
2022-10-17T00:24:00.565Z,18
2022-10-17T00:25:00.591Z,19
2022-10-17T00:27:00.600Z,23
2022-10-17T00:28:00.567Z,20
2022-10-17T00:29:00.632Z,19
2022-10-17T00:30:00.566Z,19
2022-10-17T00:32:00.608Z,17
2022-10-17T00:33:00.567Z,16
2022-10-17T00:36:00.567Z,17
2022-10-17T00:37:00.611Z,16
2022-10-17T00:39:00.567Z,17
2022-10-17T00:41:00.593Z,16
2022-10-17T00:43:00.741Z,17
2022-10-17T00:45:00.574Z,16
2022-10-17T00:46:00.571Z,17
2022-10-17T00:47:00.570Z,16
2022-10-17T00:48:00.830Z,15
2022-10-17T00:51:00.572Z,19
2022-10-17T00:52:00.578Z,22
2022-10-17T00:53:00.616Z,23
2022-10-17T00:54:00.571Z,22
2022-10-17T00:55:00.572Z,21
2022-10-17T00:57:00.595Z,20
2022-10-17T00:58:00.610Z,17
2022-10-17T01:00:00.573Z,16
2022-10-17T01:01:00.612Z,15
2022-10-17T01:03:00.673Z,17
2022-10-17T01:05:00.572Z,18
2022-10-17T01:06:00.576Z,17
2022-10-17T01:08:00.604Z,18
2022-10-17T01:09:00.576Z,17
2022-10-17T01:11:00.577Z,18
2022-10-17T01:12:00.575Z,17
2022-10-17T01:13:00.640Z,18
2022-10-17T01:15:00.576Z,17
2022-10-17T01:16:00.578Z,15
2022-10-17T01:19:00.609Z,14
2022-10-17T01:20:00.580Z,15
2022-10-17T01:21:00.583Z,16
2022-10-17T01:22:00.581Z,17
2022-10-17T01:23:00.582Z,16
2022-10-17T01:24:00.608Z,17
2022-10-17T01:25:00.582Z,18
2022-10-17T01:26:00.590Z,19
2022-10-17T01:29:00.644Z,18
2022-10-17T01:30:00.585Z,16
2022-10-17T01:31:00.589Z,15
2022-10-17T01:32:00.585Z,17
2022-10-17T01:34:00.629Z,18
2022-10-17T01:36:03.150Z,20
2022-10-17T01:37:00.591Z,19
2022-10-17T01:38:00.588Z,20
2022-10-17T01:39:00.622Z,19
2022-10-17T01:43:00.720Z,18
2022-10-17T01:44:00.623Z,20
2022-10-17T01:45:00.615Z,20
2022-10-17T01:46:00.590Z,21
2022-10-17T01:47:00.604Z,23
2022-10-17T01:48:00.590Z,24
2022-10-17T01:49:00.616Z,21
2022-10-17T01:51:00.589Z,19
2022-10-17T01:52:00.590Z,16
2022-10-17T01:53:00.590Z,14
2022-10-17T01:54:00.617Z,15
2022-10-17T01:56:00.590Z,17
2022-10-17T01:58:00.589Z,16
2022-10-17T01:59:00.618Z,17
2022-10-17T02:00:00.590Z,16
2022-10-17T02:01:00.643Z,15
2022-10-17T02:02:00.591Z,17
2022-10-17T02:04:00.755Z,16
2022-10-17T02:07:00.592Z,14
2022-10-17T02:08:00.593Z,17
2022-10-17T02:09:00.624Z,19
2022-10-17T02:10:00.620Z,20
2022-10-17T02:12:01.638Z,21
2022-10-17T02:13:00.595Z,20
2022-10-17T02:14:00.662Z,19
2022-10-17T02:15:00.596Z,16
2022-10-17T02:17:00.623Z,18
2022-10-17T02:19:00.629Z,17
2022-10-17T02:20:00.595Z,20
2022-10-17T02:21:01.622Z,21
2022-10-17T02:22:00.599Z,19
2022-10-17T02:23:00.597Z,20
2022-10-17T02:24:00.630Z,19
2022-10-17T02:25:00.597Z,16
2022-10-17T02:26:00.596Z,15
2022-10-17T02:27:00.596Z,14
2022-10-17T02:30:00.626Z,15
2022-10-17T02:32:00.600Z,16
2022-10-17T02:33:00.627Z,17
2022-10-17T02:34:00.609Z,16
2022-10-17T02:35:00.642Z,17
2022-10-17T02:36:00.599Z,19
2022-10-17T02:37:00.598Z,18
2022-10-17T02:38:00.600Z,16
2022-10-17T02:39:00.599Z,17
2022-10-17T02:40:00.634Z,16
2022-10-17T02:41:00.599Z,15
2022-10-17T02:42:00.602Z,17
2022-10-17T02:43:00.598Z,18
2022-10-17T02:44:02.259Z,19
2022-10-17T02:45:00.634Z,18
2022-10-17T02:47:00.598Z,16
2022-10-17T02:48:00.599Z,17
2022-10-17T02:49:00.625Z,16
2022-10-17T02:50:00.643Z,18
2022-10-17T02:51:00.604Z,17
2022-10-17T02:52:00.603Z,18
2022-10-17T02:53:00.601Z,19
2022-10-17T02:55:00.635Z,18
2022-10-17T02:56:00.603Z,20
2022-10-17T02:57:00.603Z,21
2022-10-17T02:58:00.603Z,18
2022-10-17T02:59:00.605Z,19
2022-10-17T03:00:00.645Z,22
2022-10-17T03:01:00.653Z,20
2022-10-17T03:02:00.606Z,19
2022-10-17T03:03:00.615Z,21
2022-10-17T03:04:00.607Z,20
2022-10-17T03:05:00.667Z,16
2022-10-17T03:07:00.607Z,17
2022-10-17T03:08:00.608Z,16
2022-10-17T03:12:00.611Z,15
2022-10-17T03:14:00.676Z,16
2022-10-17T03:15:00.612Z,16
2022-10-17T03:17:00.613Z,15
2022-10-17T03:18:00.612Z,16
2022-10-17T03:19:00.612Z,15
2022-10-17T03:20:00.613Z,17
2022-10-17T03:21:00.637Z,19
2022-10-17T03:22:00.612Z,20
2022-10-17T03:23:00.615Z,19
2022-10-17T03:25:00.613Z,18
2022-10-17T03:26:00.612Z,15
2022-10-17T03:27:00.613Z,13
2022-10-17T03:30:00.614Z,13
2022-10-17T03:31:00.615Z,16
2022-10-17T03:32:00.613Z,20
2022-10-17T03:34:00.679Z,21
2022-10-17T03:37:00.638Z,18
2022-10-17T03:42:00.613Z,17
2022-10-17T03:43:00.612Z,15
2022-10-17T03:45:00.613Z,14
2022-10-17T03:46:00.611Z,15
2022-10-17T03:47:00.613Z,14
2022-10-17T03:48:00.613Z,15
2022-10-17T03:49:00.611Z,16
2022-10-17T03:50:00.611Z,18
2022-10-17T03:51:00.613Z,16
2022-10-17T03:52:00.616Z,18
2022-10-17T03:53:00.637Z,17
2022-10-17T03:55:00.614Z,18
2022-10-17T03:56:00.614Z,17
2022-10-17T03:57:00.619Z,19
2022-10-17T03:58:00.615Z,21
2022-10-17T03:59:00.616Z,19
2022-10-17T04:00:00.653Z,17
2022-10-17T04:01:00.697Z,19
2022-10-17T04:02:00.616Z,18
2022-10-17T04:04:00.684Z,19
2022-10-17T04:05:00.696Z,20
2022-10-17T04:07:00.615Z,17
2022-10-17T04:08:02.357Z,16
2022-10-17T04:09:00.636Z,17
2022-10-17T04:10:00.641Z,16
2022-10-17T04:12:00.614Z,17
2022-10-17T04:13:00.622Z,18
2022-10-17T04:14:00.612Z,16
2022-10-17T04:15:00.646Z,17
2022-10-17T04:16:00.612Z,16
2022-10-17T04:17:00.612Z,15
2022-10-17T04:18:00.668Z,16
2022-10-17T04:19:00.614Z,18
2022-10-17T04:20:00.642Z,16
2022-10-17T04:21:00.612Z,19
2022-10-17T04:24:00.746Z,17
2022-10-17T04:25:00.674Z,18
2022-10-17T04:26:00.620Z,16
2022-10-17T04:28:00.681Z,13
2022-10-17T04:29:00.614Z,16
2022-10-17T04:30:00.652Z,16
2022-10-17T04:31:00.619Z,17
2022-10-17T04:32:00.614Z,18
2022-10-17T04:33:00.615Z,19
2022-10-17T04:34:00.616Z,18
2022-10-17T04:35:00.766Z,16
2022-10-17T04:36:00.615Z,14
2022-10-17T04:39:00.662Z,13
2022-10-17T04:40:00.659Z,16
2022-10-17T04:41:00.644Z,19
2022-10-17T04:42:00.643Z,18
2022-10-17T04:44:00.744Z,19
2022-10-17T04:45:00.615Z,18
2022-10-17T04:46:00.627Z,17
2022-10-17T04:47:00.647Z,18
2022-10-17T04:48:00.617Z,17
2022-10-17T04:49:00.616Z,18
2022-10-17T04:50:00.618Z,15
2022-10-17T04:51:00.613Z,14
2022-10-17T04:52:00.703Z,13
2022-10-17T04:53:00.619Z,16
2022-10-17T04:55:00.616Z,17
2022-10-17T04:56:00.616Z,18
2022-10-17T04:57:00.685Z,19
2022-10-17T04:58:00.615Z,18
2022-10-17T05:00:00.658Z,18
2022-10-17T05:01:00.674Z,20
2022-10-17T05:02:00.653Z,18
2022-10-17T05:03:00.616Z,17
2022-10-17T05:05:00.617Z,16
2022-10-17T05:06:01.664Z,14
2022-10-17T05:10:00.616Z,13
2022-10-17T05:11:00.618Z,14
2022-10-17T05:12:00.615Z,15
2022-10-17T05:14:00.769Z,17
2022-10-17T05:15:00.618Z,17
2022-10-17T05:18:00.619Z,16
2022-10-17T05:19:00.619Z,15
2022-10-17T05:20:00.621Z,16
2022-10-17T05:21:00.619Z,17
2022-10-17T05:23:00.682Z,18
2022-10-17T05:24:00.621Z,17
2022-10-17T05:26:00.622Z,18
2022-10-17T05:30:00.648Z,20
2022-10-17T05:31:00.622Z,18
2022-10-17T05:34:00.753Z,16
2022-10-17T05:35:00.625Z,17
2022-10-17T05:37:00.628Z,16
2022-10-17T05:39:00.627Z,17
2022-10-17T05:40:00.625Z,16
2022-10-17T05:42:00.628Z,18
2022-10-17T05:43:00.628Z,20
2022-10-17T05:45:00.629Z,18
2022-10-17T05:47:00.656Z,17
2022-10-17T05:48:00.628Z,15
2022-10-17T05:49:00.631Z,17
2022-10-17T05:50:00.631Z,19
2022-10-17T05:52:00.630Z,18
2022-10-17T05:53:00.632Z,20
2022-10-17T05:54:00.673Z,18
2022-10-17T05:55:00.631Z,16
2022-10-17T05:57:00.660Z,18
2022-10-17T05:58:00.632Z,15
2022-10-17T05:59:01.115Z,14
2022-10-17T06:00:00.638Z,15
2022-10-17T06:01:00.635Z,14
2022-10-17T06:03:00.724Z,16
2022-10-17T06:05:00.635Z,15
2022-10-17T06:06:00.679Z,17
2022-10-17T06:07:00.662Z,16
2022-10-17T06:08:01.184Z,17
2022-10-17T06:09:00.635Z,19
2022-10-17T06:10:00.637Z,20
2022-10-17T06:13:00.700Z,18
2022-10-17T06:14:00.636Z,15
2022-10-17T06:15:00.637Z,14
2022-10-17T06:16:00.638Z,13
2022-10-17T06:17:00.662Z,11
2022-10-17T06:19:00.724Z,13
2022-10-17T06:20:00.638Z,14
2022-10-17T06:21:00.639Z,15
2022-10-17T06:22:00.666Z,18
2022-10-17T06:24:00.779Z,17
2022-10-17T06:25:00.638Z,18
2022-10-17T06:27:00.674Z,17
2022-10-17T06:28:00.649Z,16
2022-10-17T06:29:00.723Z,15
2022-10-17T06:30:00.639Z,13
2022-10-17T06:32:00.680Z,15
2022-10-17T06:38:00.793Z,17
2022-10-17T06:39:00.648Z,18
2022-10-17T06:42:00.639Z,17
2022-10-17T06:43:00.641Z,16
2022-10-17T06:44:00.642Z,17
2022-10-17T06:45:00.642Z,17
2022-10-17T06:47:00.641Z,16
2022-10-17T06:48:00.642Z,15
2022-10-17T06:50:00.647Z,16
2022-10-17T06:52:00.643Z,19
2022-10-17T06:54:00.798Z,18
2022-10-17T06:55:00.708Z,19
2022-10-17T06:57:00.642Z,18
2022-10-17T07:00:00.644Z,17
2022-10-17T07:01:00.856Z,16
2022-10-17T07:03:00.708Z,17
2022-10-17T07:04:00.643Z,18
2022-10-17T07:06:00.646Z,17
2022-10-17T07:09:00.654Z,16
2022-10-17T07:10:00.669Z,14
2022-10-17T07:14:00.774Z,15
2022-10-17T07:15:00.645Z,16
2022-10-17T07:16:00.663Z,15
2022-10-17T07:20:00.654Z,16
2022-10-17T07:21:00.648Z,18
2022-10-17T07:23:00.715Z,20
2022-10-17T07:25:00.653Z,19
2022-10-17T07:26:00.681Z,18
2022-10-17T07:27:00.649Z,17
2022-10-17T07:28:00.684Z,14
2022-10-17T07:29:00.676Z,15
2022-10-17T07:30:00.649Z,15
2022-10-17T07:31:00.649Z,16
2022-10-17T07:32:00.652Z,15
2022-10-17T07:33:00.690Z,17
2022-10-17T07:36:00.649Z,19
2022-10-17T07:37:00.648Z,21
2022-10-17T07:38:00.684Z,20
2022-10-17T07:39:00.653Z,21
2022-10-17T07:40:00.650Z,19
2022-10-17T07:41:00.652Z,17
2022-10-17T07:42:01.700Z,16
2022-10-17T07:44:00.783Z,15
2022-10-17T07:45:00.655Z,15
2022-10-17T07:46:00.649Z,16
2022-10-17T07:49:00.651Z,18
2022-10-17T07:50:00.651Z,19
2022-10-17T07:51:00.652Z,20
2022-10-17T07:53:00.715Z,19
2022-10-17T07:54:00.651Z,17
2022-10-17T07:56:00.653Z,16
2022-10-17T07:58:00.677Z,18
2022-10-17T07:59:02.545Z,17
2022-10-17T08:00:00.653Z,17
2022-10-17T08:03:00.653Z,14
2022-10-17T08:04:00.701Z,16
2022-10-17T08:06:00.654Z,17
2022-10-17T08:07:11.885Z,20
2022-10-17T08:08:00.633Z,21
2022-10-17T08:09:00.690Z,22
2022-10-17T08:10:00.791Z,24
2022-10-17T08:11:00.718Z,23
2022-10-17T08:12:00.661Z,21
2022-10-17T08:13:00.655Z,20
2022-10-17T08:14:00.719Z,18
2022-10-17T08:15:00.656Z,17
2022-10-17T08:17:00.655Z,16
2022-10-17T08:20:00.657Z,14
2022-10-17T08:21:00.722Z,15
2022-10-17T08:22:00.656Z,16
2022-10-17T08:24:00.722Z,17
2022-10-17T08:25:00.659Z,19
2022-10-17T08:26:00.655Z,20
2022-10-17T08:28:00.696Z,19
2022-10-17T08:29:00.696Z,16
2022-10-17T08:30:00.679Z,16
2022-10-17T08:32:01.892Z,17
2022-10-17T08:34:00.722Z,19
2022-10-17T08:36:00.661Z,16
2022-10-17T08:37:00.735Z,15
2022-10-17T08:38:00.660Z,14
2022-10-17T08:42:00.660Z,15
2022-10-17T08:43:00.660Z,16
2022-10-17T08:44:00.659Z,17
2022-10-17T08:45:00.700Z,15
2022-10-17T08:46:00.686Z,18
2022-10-17T08:48:00.662Z,17
2022-10-17T08:49:00.659Z,16
2022-10-17T08:50:00.699Z,18
2022-10-17T08:51:00.664Z,17
2022-10-17T08:52:00.659Z,15
2022-10-17T08:53:00.668Z,16
2022-10-17T08:54:00.659Z,17
2022-10-17T08:55:00.719Z,18
2022-10-17T08:56:00.660Z,17
2022-10-17T08:57:00.662Z,18
2022-10-17T08:59:00.660Z,20
2022-10-17T09:00:01.071Z,18
2022-10-17T09:01:00.797Z,19
2022-10-17T09:03:00.790Z,18
2022-10-17T09:04:00.665Z,16
2022-10-17T09:06:01.694Z,17
2022-10-17T09:08:00.664Z,15
2022-10-17T09:10:00.668Z,17
2022-10-17T09:11:00.694Z,18
2022-10-17T09:12:00.666Z,21
2022-10-17T09:13:03.928Z,22
2022-10-17T09:15:00.702Z,19
2022-10-17T09:16:00.666Z,18
2022-10-17T09:17:00.672Z,16
2022-10-17T09:20:00.752Z,17
2022-10-17T09:21:00.668Z,16
2022-10-17T09:22:00.669Z,17
2022-10-17T09:23:00.672Z,18
2022-10-17T09:27:00.669Z,17
2022-10-17T09:29:00.746Z,16
2022-10-17T09:30:00.710Z,15
2022-10-17T09:31:00.678Z,18
2022-10-17T09:32:00.679Z,17
2022-10-17T09:33:00.673Z,18
2022-10-17T09:34:00.673Z,19
2022-10-17T09:36:00.727Z,18
2022-10-17T09:37:00.676Z,17
2022-10-17T09:38:00.675Z,19
2022-10-17T09:41:00.734Z,20
2022-10-17T09:42:00.676Z,21
2022-10-17T09:43:00.677Z,18
2022-10-17T09:44:00.678Z,19
2022-10-17T09:45:00.685Z,18
2022-10-17T09:47:00.708Z,16
2022-10-17T09:48:01.531Z,17
2022-10-17T09:50:00.688Z,19
2022-10-17T09:51:08.172Z,17
2022-10-17T09:52:00.739Z,18
2022-10-17T09:53:00.685Z,19
2022-10-17T09:54:00.681Z,18
2022-10-17T09:55:00.683Z,16
2022-10-17T09:56:00.687Z,17
2022-10-17T10:00:00.812Z,18
2022-10-17T10:01:00.703Z,17
2022-10-17T10:03:00.792Z,14
2022-10-17T10:06:00.682Z,16
2022-10-17T10:07:00.684Z,17
2022-10-17T10:08:00.746Z,18
2022-10-17T10:10:00.686Z,19
2022-10-17T10:11:00.685Z,18
2022-10-17T10:12:00.685Z,19
2022-10-17T10:13:00.722Z,21
2022-10-17T10:14:00.688Z,19
2022-10-17T10:15:00.686Z,19
2022-10-17T10:17:00.687Z,18
2022-10-17T10:18:00.732Z,14
2022-10-17T10:19:02.006Z,16
2022-10-17T10:20:00.691Z,15
2022-10-17T10:22:00.689Z,16
2022-10-17T10:23:00.733Z,17
2022-10-17T10:24:00.717Z,15
2022-10-17T10:25:00.691Z,17
2022-10-17T10:26:00.718Z,19
2022-10-17T10:28:01.384Z,21
2022-10-17T10:29:00.758Z,22
2022-10-17T10:30:00.692Z,20
2022-10-17T10:31:00.694Z,16
2022-10-17T10:32:00.693Z,17
2022-10-17T10:33:00.737Z,16
2022-10-17T10:35:00.693Z,18
2022-10-17T10:36:00.693Z,20
2022-10-17T10:37:00.691Z,18
2022-10-17T10:39:02.414Z,16
2022-10-17T10:43:05.044Z,15
2022-10-17T10:45:00.696Z,15
2022-10-17T10:46:00.696Z,14
2022-10-17T10:47:00.697Z,15
2022-10-17T10:48:00.741Z,16
2022-10-17T10:49:00.697Z,18
2022-10-17T10:50:00.699Z,17
2022-10-17T10:51:00.698Z,18
2022-10-17T10:52:00.702Z,17
2022-10-17T10:53:00.743Z,16
2022-10-17T10:55:00.709Z,17
2022-10-17T10:56:00.697Z,15
2022-10-17T10:58:00.731Z,17
2022-10-17T10:59:00.728Z,15
2022-10-17T11:00:00.696Z,14
2022-10-17T11:01:00.755Z,15
2022-10-17T11:02:00.697Z,17
2022-10-17T11:03:01.780Z,16
2022-10-17T11:04:00.699Z,17
2022-10-17T11:05:00.699Z,18
2022-10-17T11:07:00.699Z,17
2022-10-17T11:08:00.737Z,18
2022-10-17T11:09:00.700Z,19
2022-10-17T11:10:00.702Z,18
2022-10-17T11:13:00.737Z,17
2022-10-17T11:15:00.727Z,19
2022-10-17T11:16:00.704Z,17
2022-10-17T11:17:00.701Z,18
2022-10-17T11:19:00.743Z,17
2022-10-17T11:20:00.710Z,18
2022-10-17T11:21:00.702Z,19
2022-10-17T11:22:00.708Z,20
2022-10-17T11:24:00.800Z,18
2022-10-17T11:25:00.703Z,17
2022-10-17T11:27:00.705Z,16
2022-10-17T11:28:04.592Z,18
2022-10-17T11:29:00.779Z,20
2022-10-17T11:30:00.706Z,20
2022-10-17T11:31:02.257Z,19
2022-10-17T11:32:00.705Z,16
2022-10-17T11:33:00.709Z,17
2022-10-17T11:34:00.735Z,14
2022-10-17T11:35:00.707Z,13
2022-10-17T11:36:00.713Z,15
2022-10-17T11:37:00.707Z,18
2022-10-17T11:38:00.708Z,17
2022-10-17T11:40:00.752Z,18
2022-10-17T11:41:00.708Z,17
2022-10-17T11:43:00.775Z,16
2022-10-17T11:44:01.735Z,17
2022-10-17T11:45:00.745Z,17
2022-10-17T11:47:00.734Z,19
2022-10-17T11:48:00.785Z,20
2022-10-17T11:49:00.711Z,19
2022-10-17T12:10:00.349Z,21
2022-10-17T12:11:00.925Z,18
2022-10-17T12:12:00.191Z,17
2022-10-17T12:13:00.215Z,16
2022-10-17T12:15:00.188Z,13
2022-10-17T12:16:00.187Z,16
2022-10-17T12:17:00.188Z,17
2022-10-17T12:18:00.214Z,18
2022-10-17T12:20:00.185Z,20
2022-10-17T12:21:00.200Z,17
2022-10-17T12:27:00.212Z,18
2022-10-17T12:30:00.253Z,17
2022-10-17T12:31:00.190Z,16
2022-10-17T12:32:00.192Z,15
2022-10-17T12:34:00.280Z,16
2022-10-17T12:35:01.154Z,18
2022-10-17T12:36:00.188Z,19
2022-10-17T12:38:00.189Z,20
2022-10-17T12:39:00.223Z,19
2022-10-17T12:41:00.190Z,18
2022-10-17T12:43:00.345Z,17
2022-10-17T12:45:00.199Z,16
2022-10-17T12:46:00.189Z,17
2022-10-17T12:47:00.188Z,18
2022-10-17T12:50:00.192Z,20
2022-10-17T12:51:12.222Z,19
2022-10-17T12:52:00.168Z,18
2022-10-17T12:53:00.192Z,17
2022-10-17T12:54:00.191Z,19
2022-10-17T12:55:10.805Z,17
2022-10-17T12:59:00.220Z,15
2022-10-17T13:00:00.191Z,16
2022-10-17T13:01:25.040Z,17
2022-10-17T13:02:00.228Z,18
2022-10-17T13:03:00.190Z,17
2022-10-17T13:04:00.195Z,21
2022-10-17T13:05:00.246Z,18
2022-10-17T13:07:00.190Z,17
2022-10-17T13:08:00.201Z,18
2022-10-17T13:09:03.765Z,16
2022-10-17T13:10:00.341Z,17
2022-10-17T13:13:00.319Z,15
2022-10-17T13:14:00.190Z,16
2022-10-17T13:15:00.258Z,16
2022-10-17T13:17:01.217Z,17
2022-10-17T13:18:00.194Z,19
2022-10-17T13:19:00.194Z,20
2022-10-17T13:20:00.218Z,19
2022-10-17T13:23:00.259Z,17
2022-10-17T13:25:00.218Z,16
2022-10-17T13:27:00.191Z,17
2022-10-17T13:28:00.190Z,18
2022-10-17T13:29:00.267Z,16
2022-10-17T13:30:00.233Z,18
2022-10-17T13:32:00.216Z,17
2022-10-17T13:35:00.347Z,16
2022-10-17T13:37:00.193Z,17
2022-10-17T13:39:00.191Z,19
2022-10-17T13:40:06.911Z,20
2022-10-17T13:41:06.030Z,19
2022-10-17T13:42:00.170Z,20
2022-10-17T13:43:00.193Z,19
2022-10-17T13:44:00.192Z,17
2022-10-17T13:45:00.239Z,15
2022-10-17T13:46:09.277Z,16
2022-10-17T13:48:00.200Z,17
2022-10-17T13:50:00.228Z,19
2022-10-17T13:51:02.721Z,20
2022-10-17T13:52:00.200Z,19
2022-10-17T13:53:00.202Z,20
2022-10-17T13:54:00.200Z,18
2022-10-17T13:55:00.246Z,17
2022-10-17T13:56:16.111Z,18
2022-10-17T13:57:00.180Z,19
2022-10-17T14:00:00.249Z,19
2022-10-17T14:01:00.266Z,18
2022-10-17T14:02:00.203Z,16
2022-10-17T14:03:00.204Z,17
2022-10-17T14:04:08.706Z,18
2022-10-17T14:07:00.205Z,17
2022-10-17T14:08:20.432Z,16
2022-10-17T14:09:00.188Z,14
2022-10-17T14:10:00.361Z,15
2022-10-17T14:11:00.208Z,14
2022-10-17T14:12:00.209Z,15
2022-10-17T14:14:00.276Z,16
2022-10-17T14:15:12.633Z,16
2022-10-17T14:16:00.210Z,17
2022-10-17T14:17:00.209Z,18
2022-10-17T14:19:00.215Z,19
2022-10-17T14:20:16.329Z,20
2022-10-17T14:40:01.006Z,17
2022-10-17T14:41:15.609Z,19
2022-10-17T14:44:00.944Z,18
2022-10-17T14:45:00.912Z,18
2022-10-17T14:46:00.918Z,17
2022-10-17T14:47:03.408Z,15
2022-10-17T14:48:00.913Z,17
2022-10-17T14:49:00.918Z,16
2022-10-17T14:51:00.916Z,18
2022-10-17T14:52:07.341Z,19
2022-10-17T14:53:00.913Z,18
2022-10-17T14:54:05.014Z,20
2022-10-17T14:55:00.952Z,21
2022-10-17T14:57:00.941Z,20
2022-10-17T14:58:00.917Z,22
2022-10-17T14:59:00.916Z,20
2022-10-17T15:00:00.955Z,20
2022-10-17T15:01:00.917Z,21
2022-10-17T15:02:00.915Z,22
2022-10-17T15:03:00.980Z,19
2022-10-17T15:04:00.916Z,18
2022-10-17T15:06:00.919Z,17
2022-10-17T15:07:00.918Z,18
2022-10-17T15:08:00.917Z,20
2022-10-17T15:09:00.932Z,21
2022-10-17T15:11:00.940Z,20
2022-10-17T15:12:00.920Z,18
2022-10-17T15:13:16.335Z,16
2022-10-17T15:15:00.898Z,16
2022-10-17T15:17:00.921Z,15
2022-10-17T15:18:00.923Z,16
2022-10-17T15:20:00.922Z,17
2022-10-17T15:23:00.996Z,16
2022-10-17T15:25:00.924Z,15
2022-10-17T15:27:00.929Z,18
2022-10-17T15:28:00.936Z,19
2022-10-17T15:29:00.973Z,22
2022-10-17T15:30:00.924Z,23
2022-10-17T15:32:00.931Z,22
2022-10-17T15:33:00.924Z,21
2022-10-17T15:34:00.931Z,16
2022-10-17T15:35:00.921Z,18
2022-10-17T15:36:00.943Z,16
2022-10-17T15:37:00.925Z,15
2022-10-17T15:38:00.925Z,16
2022-10-17T15:39:00.918Z,17
2022-10-17T15:40:00.923Z,18
2022-10-17T15:41:00.922Z,20
2022-10-17T15:42:00.922Z,21
2022-10-17T15:44:00.920Z,20
2022-10-17T15:45:00.977Z,18
2022-10-17T15:46:00.990Z,16
2022-10-17T15:49:00.924Z,17
2022-10-17T15:50:00.959Z,18
2022-10-17T15:51:00.936Z,20
2022-10-17T15:52:01.014Z,17
2022-10-17T15:53:00.957Z,16
2022-10-17T15:54:01.008Z,17
2022-10-17T15:55:02.447Z,16
2022-10-17T15:56:00.926Z,15
2022-10-17T15:57:00.943Z,16
2022-10-17T16:00:00.929Z,17
2022-10-17T16:01:01.004Z,18
2022-10-17T16:02:00.929Z,17
2022-10-17T16:03:00.924Z,18
2022-10-17T16:04:00.927Z,16
2022-10-17T16:05:00.927Z,18
2022-10-17T16:07:00.935Z,19
2022-10-17T16:08:00.934Z,20
2022-10-17T16:09:00.923Z,22
2022-10-17T16:10:00.950Z,21
2022-10-17T16:11:00.927Z,20
2022-10-17T16:13:01.056Z,19
2022-10-17T16:14:00.929Z,16
2022-10-17T16:15:00.933Z,17
2022-10-17T16:17:00.953Z,18
2022-10-17T16:18:01.809Z,20
2022-10-17T16:23:00.994Z,19
2022-10-17T16:25:00.933Z,17
2022-10-17T16:26:00.932Z,16
2022-10-17T16:28:00.934Z,17
2022-10-17T16:29:00.968Z,18
2022-10-17T16:30:00.935Z,19
2022-10-17T16:31:00.934Z,21
2022-10-17T16:32:00.933Z,20
2022-10-17T16:33:00.959Z,19
2022-10-17T16:34:00.944Z,18
2022-10-17T16:38:00.936Z,17
2022-10-17T16:39:00.936Z,18
2022-10-17T16:40:00.937Z,17
2022-10-17T16:41:00.932Z,15
2022-10-17T16:42:00.938Z,14
2022-10-17T16:44:01.001Z,15
2022-10-17T16:45:00.966Z,14
2022-10-17T16:47:00.942Z,15
2022-10-17T16:48:00.938Z,14
2022-10-17T16:49:00.963Z,13
2022-10-17T16:50:00.968Z,14
2022-10-17T16:51:00.938Z,15
2022-10-17T16:54:01.004Z,17
2022-10-17T16:56:00.940Z,16
2022-10-17T16:58:00.937Z,17
2022-10-17T16:59:00.949Z,15
2022-10-17T17:00:00.969Z,16
2022-10-17T17:01:01.050Z,18
2022-10-17T17:02:00.943Z,19
2022-10-17T17:04:01.070Z,20
2022-10-17T17:05:00.994Z,22
2022-10-17T17:07:00.940Z,21
2022-10-17T17:08:00.943Z,22
2022-10-17T17:10:00.986Z,19
2022-10-17T17:11:00.943Z,17
2022-10-17T17:12:00.941Z,16
2022-10-17T17:13:00.942Z,15
2022-10-17T17:14:00.939Z,14
2022-10-17T17:15:01.015Z,16
2022-10-17T17:16:00.942Z,17
2022-10-17T17:17:00.943Z,18
2022-10-17T17:21:00.984Z,17
2022-10-17T17:22:00.945Z,16
2022-10-17T17:23:00.947Z,18
2022-10-17T17:24:00.946Z,20
2022-10-17T17:26:01.012Z,19
2022-10-17T17:27:00.950Z,20
2022-10-17T17:28:00.947Z,19
2022-10-17T17:29:00.999Z,18
2022-10-17T17:30:00.951Z,17
2022-10-17T17:32:00.952Z,15
2022-10-17T17:33:00.950Z,16
2022-10-17T17:35:00.949Z,17
2022-10-17T17:37:00.977Z,18
2022-10-17T17:38:00.956Z,15
2022-10-17T17:39:00.956Z,14
2022-10-17T17:42:00.952Z,15
2022-10-17T17:44:00.961Z,18
2022-10-17T17:45:00.951Z,18
2022-10-17T17:47:00.954Z,17
2022-10-17T17:48:00.950Z,16
2022-10-17T17:49:00.958Z,15
2022-10-17T17:54:01.110Z,17
2022-10-17T17:55:00.955Z,19
2022-10-17T17:56:01.030Z,21
2022-10-17T17:57:00.956Z,20
2022-10-17T17:58:01.021Z,21
2022-10-17T17:59:00.962Z,20
2022-10-17T18:00:00.965Z,19
2022-10-17T18:01:01.010Z,17
2022-10-17T18:02:01.007Z,18
2022-10-17T18:03:00.959Z,19
2022-10-17T18:04:01.092Z,20
2022-10-17T18:05:01.987Z,21
2022-10-17T18:06:00.987Z,22
2022-10-17T18:08:00.963Z,21
2022-10-17T18:11:01.016Z,20
2022-10-17T18:13:01.091Z,21
2022-10-17T18:14:00.963Z,19
2022-10-17T18:15:00.961Z,19
2022-10-17T18:16:01.038Z,20
2022-10-17T18:17:00.972Z,19
2022-10-17T18:18:00.962Z,18
2022-10-17T18:19:02.703Z,19
2022-10-17T18:21:01.004Z,18
2022-10-17T18:22:00.965Z,19
2022-10-17T18:23:03.307Z,23
2022-10-17T18:24:00.978Z,21
2022-10-17T18:25:00.962Z,20
2022-10-17T18:26:01.017Z,19
2022-10-17T18:27:01.058Z,17
2022-10-17T18:28:00.961Z,14
2022-10-17T18:29:00.960Z,15
2022-10-17T18:30:00.965Z,17
2022-10-17T18:31:01.136Z,18
2022-10-17T18:33:01.024Z,17
2022-10-17T18:34:00.960Z,19
2022-10-17T18:35:00.959Z,16
2022-10-17T18:38:00.987Z,19
2022-10-17T18:40:00.966Z,21
2022-10-17T18:41:00.964Z,22
2022-10-17T18:43:01.086Z,21
2022-10-17T18:44:00.967Z,20
2022-10-17T18:45:00.963Z,20
2022-10-17T18:46:00.962Z,19
2022-10-17T18:48:00.996Z,20
2022-10-17T18:49:00.963Z,18
2022-10-17T18:50:00.961Z,17
2022-10-17T18:52:00.994Z,16
2022-10-17T18:53:00.963Z,15
2022-10-17T18:54:01.027Z,14
2022-10-17T18:55:00.965Z,15
2022-10-17T18:56:00.972Z,16
2022-10-17T18:57:00.991Z,17
2022-10-17T18:58:00.965Z,19
2022-10-17T18:59:00.991Z,20
2022-10-17T19:00:00.969Z,19
2022-10-17T19:02:01.044Z,20
2022-10-17T19:03:00.966Z,19
2022-10-17T19:04:00.966Z,20
2022-10-17T19:06:01.125Z,18
2022-10-17T19:10:00.998Z,19
2022-10-17T19:11:00.968Z,21
2022-10-17T19:13:01.062Z,22
2022-10-17T19:14:00.969Z,21
2022-10-17T19:15:00.993Z,21
2022-10-17T19:16:00.969Z,19
2022-10-17T19:17:00.998Z,18
2022-10-17T19:19:00.970Z,17
2022-10-17T19:21:00.971Z,19
2022-10-17T19:22:00.998Z,18
2022-10-17T19:23:00.972Z,17
2022-10-17T19:24:00.970Z,16
2022-10-17T19:25:00.972Z,17
2022-10-17T19:26:00.969Z,16
2022-10-17T19:29:01.041Z,18
2022-10-17T19:30:01.037Z,17
2022-10-17T19:31:01.005Z,16
2022-10-17T19:33:01.072Z,18
2022-10-17T19:34:00.972Z,17
2022-10-17T19:36:00.971Z,16
2022-10-17T19:38:01.093Z,15
2022-10-17T19:39:00.973Z,16
2022-10-17T19:40:00.976Z,17
2022-10-17T19:42:04.295Z,18
2022-10-17T19:45:00.973Z,17
2022-10-17T19:46:00.975Z,19
2022-10-17T19:48:01.035Z,18
2022-10-17T19:50:01.030Z,19
2022-10-17T19:51:00.975Z,16
2022-10-17T19:53:01.196Z,17
2022-10-17T19:54:00.981Z,16
2022-10-17T20:00:01.066Z,16
2022-10-17T20:01:00.982Z,17
2022-10-17T20:03:01.055Z,18
2022-10-17T20:05:17.385Z,19
2022-10-17T20:06:00.957Z,18
2022-10-17T20:07:00.980Z,19
2022-10-17T20:09:01.004Z,21
2022-10-17T20:10:01.011Z,19
2022-10-17T20:11:00.983Z,20
2022-10-17T20:13:01.049Z,19
2022-10-17T20:14:00.981Z,21
2022-10-17T20:15:01.018Z,21
2022-10-17T20:16:00.981Z,19
2022-10-17T20:18:00.981Z,18
2022-10-17T20:19:00.981Z,15
2022-10-17T20:21:01.011Z,14
2022-10-17T20:22:00.983Z,15
2022-10-17T20:24:01.111Z,16
2022-10-17T20:25:00.982Z,15
2022-10-17T20:26:06.571Z,16
2022-10-17T20:27:00.982Z,17
2022-10-17T20:30:02.075Z,19